createdAt,value
2018-05-31T00:10:00.317Z,51.6
2018-05-31T00:20:11.851Z,51.2
2018-05-31T00:30:57.505Z,52.3
2018-05-31T00:41:43.612Z,51.6
2018-05-31T00:51:55.709Z,51.8
2018-05-31T01:02:07.931Z,51.0
2018-05-31T01:12:53.929Z,51.8
2018-05-31T01:23:08.885Z,52.4
2018-05-31T01:33:21.152Z,51.5
2018-05-31T01:43:35.721Z,51.1
2018-05-31T01:53:47.713Z,51.6
2018-05-31T02:03:59.953Z,50.9
2018-05-31T02:14:14.234Z,50.4
2018-05-31T02:24:26.709Z,52.2
2018-05-31T02:35:12.409Z,53.2
2018-05-31T02:45:24.987Z,51.8
2018-05-31T02:55:36.842Z,52.6
2018-05-31T03:05:49.231Z,51.6
2018-05-31T03:16:30.899Z,52.0
2018-05-31T03:28:07.895Z,51.1
2018-05-31T03:38:22.655Z,51.5
2018-05-31T03:48:34.870Z,50.5
2018-05-31T03:59:24.063Z,50.2
2018-05-31T04:09:36.023Z,50.4
2018-05-31T04:19:49.298Z,50.6
2018-05-31T04:40:21.716Z,51.3
2018-05-31T04:50:33.843Z,51.8
2018-05-31T05:00:48.320Z,51.5
2018-05-31T05:11:35.158Z,51.8
2018-05-31T05:22:21.424Z,53.3
2018-05-31T05:32:43.411Z,52.8
2018-05-31T05:42:57.867Z,54.4
2018-05-31T05:53:27.345Z,54.7
2018-05-31T06:04:17.315Z,55.1
2018-05-31T06:14:29.709Z,54.5
2018-05-31T06:24:41.549Z,54.3
2018-05-31T06:35:17.431Z,54.5
2018-05-31T06:46:02.930Z,54.9
2018-05-31T06:56:48.902Z,54.3
2018-05-31T07:07:03.820Z,53.9
2018-05-31T07:17:18.475Z,53.4
2018-05-31T07:27:30.959Z,53.5
2018-05-31T07:37:45.369Z,52.7
2018-05-31T07:47:59.859Z,50.8
2018-05-31T07:58:47.217Z,48.9
2018-05-31T08:09:32.355Z,48.0
2018-05-31T08:20:18.185Z,46.5
2018-05-31T08:31:30.732Z,44.9
2018-05-31T08:42:16.323Z,42.9
2018-05-31T08:52:30.240Z,41.3
2018-05-31T09:02:43.264Z,39.9
2018-05-31T09:13:01.478Z,39.2
2018-05-31T09:23:23.443Z,38.1
2018-05-31T09:33:37.496Z,36.2
2018-05-31T09:44:29.528Z,34.5
2018-05-31T09:55:04.089Z,33.5
2018-05-31T10:05:18.919Z,32.0
2018-05-31T10:16:04.245Z,30.3
2018-05-31T10:27:17.711Z,30.0
2018-05-31T10:37:31.274Z,29.2
2018-05-31T10:48:30.899Z,29.1
2018-05-31T10:59:00.496Z,27.7
2018-05-31T11:10:15.605Z,27.8
2018-05-31T11:20:50.113Z,28.2
2018-05-31T11:41:22.289Z,28.6
2018-05-31T11:51:38.300Z,28.6
2018-05-31T12:01:55.205Z,29.1
2018-05-31T12:12:09.200Z,29.5
2018-05-31T12:23:03.056Z,29.6
2018-05-31T12:49:21.441Z,31.1
2018-05-31T13:04:29.636Z,32.8
2018-05-31T13:19:00.454Z,32.5
2018-05-31T14:20:11.343Z,39.4
2018-05-31T14:33:02.446Z,42.7
2018-05-31T15:08:59.724Z,47.4
2018-05-31T15:21:17.632Z,48.7
2018-05-31T15:32:27.128Z,49.5
2018-05-31T15:43:25.789Z,50.3
2018-05-31T15:57:16.448Z,50.8
2018-05-31T16:08:27.061Z,52.0
2018-05-31T16:19:49.520Z,51.9
2018-05-31T16:32:09.586Z,53.7
2018-05-31T16:43:20.410Z,55.5
2018-05-31T16:56:31.138Z,56.2
2018-05-31T17:08:36.208Z,57.0
2018-05-31T17:32:33.762Z,58.0
2018-05-31T17:58:40.774Z,59.7
2018-05-31T18:32:18.628Z,59.0
2018-05-31T18:45:04.261Z,59.2
2018-05-31T20:23:33.399Z,56.7
2018-05-31T20:33:55.939Z,56.3
2018-05-31T20:44:34.904Z,56.2
2018-05-31T20:55:23.060Z,56.4
2018-05-31T21:05:49.685Z,56.5
2018-05-31T21:16:04.328Z,56.2
2018-05-31T21:27:19.426Z,56.8
2018-05-31T21:37:54.727Z,57.0
2018-05-31T21:48:14.025Z,56.5
2018-05-31T21:58:27.932Z,57.1
2018-05-31T22:08:47.905Z,56.8
2018-05-31T22:19:14.333Z,56.8
2018-05-31T22:30:01.551Z,55.9
2018-05-31T22:40:15.530Z,56.2
2018-05-31T22:50:32.096Z,57.1
2018-05-31T23:00:46.662Z,56.7
2018-05-31T23:11:12.915Z,56.8
2018-05-31T23:32:53.055Z,55.4
2018-05-31T23:43:09.631Z,54.9
